Time;durP1;ratioP1;P1;durP2;ratioP2;P2;SDS_P1;SDS_P2;PMS_P1;PMS_P2;Temp;Humidity;BMP_temperature;BMP_pressure;BME280_temperature;BME280_humidity;BME280_pressure;Samples;Min_cycle;Max_cycle;Signal;HPM_P1;HPM_P2
2022/03/11 00:00:38;;;;;;;;;;;22.40;26.40;;;;;;5049248;28;19925;-74
2022/03/11 00:03:06;;;;;;;;;;;22.40;26.40;;;;;;5048632;28;20011;-74
2022/03/11 00:05:33;;;;;;;;;;;22.40;26.40;;;;;;5050029;28;19976;-74
2022/03/11 00:08:00;;;;;;;;;;;22.40;26.40;;;;;;5048966;28;20435;-74
2022/03/11 00:10:27;;;;;;;;;;;22.40;26.40;;;;;;5049662;28;19990;-74
2022/03/11 00:12:54;;;;;;;;;;;22.40;26.40;;;;;;5047930;28;20290;-74
2022/03/11 00:15:21;;;;;;;;;;;22.40;26.40;;;;;;5050140;28;19978;-75
2022/03/11 00:17:48;;;;;;;;;;;22.40;26.50;;;;;;5047465;28;20340;-75
2022/03/11 00:20:19;;;;;;;;;;;22.40;26.40;;;;;;5050016;28;19924;-74
2022/03/11 00:22:46;;;;;;;;;;;22.40;26.50;;;;;;5047658;28;19935;-75
2022/03/11 00:25:14;;;;;;;;;;;22.40;26.50;;;;;;5049118;28;19925;-74
2022/03/11 00:27:41;;;;;;;;;;;22.40;26.50;;;;;;5049844;28;19936;-75
2022/03/11 00:30:08;;;;;;;;;;;22.40;26.50;;;;;;5049629;28;19978;-75
2022/03/11 00:32:35;;;;;;;;;;;22.30;26.40;;;;;;5047595;28;20387;-74
2022/03/11 00:35:04;;;;;;;;;;;22.30;26.40;;;;;;5049058;28;20516;-75
2022/03/11 00:37:31;;;;;;;;;;;22.30;26.40;;;;;;5049812;28;19936;-74
2022/03/11 00:40:19;;;;;;;;;;;22.30;26.40;;;;;;5048985;28;20509;-74
2022/03/11 00:42:46;;;;;;;;;;;22.30;26.50;;;;;;5047202;28;19951;-74
2022/03/11 00:45:13;;;;;;;;;;;22.30;26.50;;;;;;5049480;28;20011;-74
2022/03/11 00:47:40;;;;;;;;;;;22.30;26.50;;;;;;5049198;28;20282;-74
2022/03/11 00:50:08;;;;;;;;;;;22.30;26.50;;;;;;5049054;28;20354;-74
2022/03/11 00:52:35;;;;;;;;;;;22.30;26.50;;;;;;5047424;28;20349;-74
2022/03/11 00:55:03;;;;;;;;;;;22.30;26.50;;;;;;5049095;28;19925;-74
2022/03/11 00:57:30;;;;;;;;;;;22.30;26.50;;;;;;5049350;28;20394;-74
2022/03/11 00:59:57;;;;;;;;;;;22.30;26.50;;;;;;5048416;28;19929;-74
2022/03/11 01:02:24;;;;;;;;;;;22.30;26.50;;;;;;5047789;28;19925;-74
2022/03/11 01:04:51;;;;;;;;;;;22.30;26.50;;;;;;5048201;28;19994;-74
2022/03/11 01:07:18;;;;;;;;;;;22.30;26.50;;;;;;5050406;28;19925;-74
2022/03/11 01:09:45;;;;;;;;;;;22.30;26.50;;;;;;5048795;28;19951;-74
2022/03/11 01:12:12;;;;;;;;;;;22.30;26.50;;;;;;5047249;28;19924;-74
2022/03/11 01:18:02;;;;;;;;;;;22.30;26.50;;;;;;5049048;28;19920;-74
2022/03/11 01:20:29;;;;;;;;;;;22.20;26.50;;;;;;5048701;28;19925;-74
2022/03/11 01:22:56;;;;;;;;;;;22.20;26.50;;;;;;5045299;28;20406;-73
2022/03/11 01:25:23;;;;;;;;;;;22.20;26.50;;;;;;5048643;28;19924;-75
2022/03/11 01:27:50;;;;;;;;;;;22.20;26.50;;;;;;5049543;28;19932;-74
2022/03/11 01:30:30;;;;;;;;;;;22.20;26.60;;;;;;5048372;28;19931;-74
2022/03/11 01:32:57;;;;;;;;;;;22.20;26.50;;;;;;5046798;28;19928;-74
2022/03/11 01:35:24;;;;;;;;;;;22.20;26.50;;;;;;5049002;28;19925;-74
2022/03/11 01:37:51;;;;;;;;;;;22.20;26.50;;;;;;5048987;28;19974;-74
2022/03/11 01:40:18;;;;;;;;;;;22.20;26.50;;;;;;5048475;28;19979;-74
2022/03/11 01:42:46;;;;;;;;;;;22.20;26.60;;;;;;5047163;28;20314;-74
2022/03/11 01:45:13;;;;;;;;;;;22.20;26.70;;;;;;5048429;28;20492;-74
2022/03/11 01:47:40;;;;;;;;;;;22.20;26.60;;;;;;5048973;28;20382;-73
2022/03/11 01:50:07;;;;;;;;;;;22.20;26.60;;;;;;5048318;28;19940;-74
2022/03/11 01:52:36;;;;;;;;;;;22.20;26.60;;;;;;5047250;28;19924;-74
2022/03/11 01:58:25;;;;;;;;;;;22.10;26.60;;;;;;5048311;28;19993;-74
2022/03/11 02:00:52;;;;;;;;;;;22.10;26.60;;;;;;5048889;28;20374;-74
2022/03/11 02:03:20;;;;;;;;;;;22.10;26.60;;;;;;5046065;28;20349;-74
2022/03/11 02:05:47;;;;;;;;;;;22.10;26.60;;;;;;5046972;28;19929;-74
2022/03/11 02:08:14;;;;;;;;;;;22.10;26.60;;;;;;5047991;28;19978;-74
2022/03/11 02:10:41;;;;;;;;;;;22.10;26.60;;;;;;5048518;28;19983;-74
2022/03/11 02:13:08;;;;;;;;;;;22.10;27.10;;;;;;5046142;28;19928;-74
2022/03/11 02:15:35;;;;;;;;;;;22.10;26.70;;;;;;5048790;28;19981;-74
2022/03/11 02:18:02;;;;;;;;;;;22.10;26.70;;;;;;5048750;28;20667;-75
2022/03/11 02:20:29;;;;;;;;;;;22.10;26.70;;;;;;5048240;28;19925;-74
2022/03/11 02:22:57;;;;;;;;;;;22.10;26.70;;;;;;5046782;28;19956;-74
2022/03/11 02:25:24;;;;;;;;;;;22.10;26.80;;;;;;5051843;28;19924;-74
2022/03/11 02:27:51;;;;;;;;;;;22.10;26.80;;;;;;5053095;28;19982;-74
2022/03/11 02:30:20;;;;;;;;;;;22.10;27.30;;;;;;5051788;28;20266;-74
2022/03/11 02:32:47;;;;;;;;;;;22.10;26.80;;;;;;5050467;28;19924;-74
2022/03/11 02:38:51;;;;;;;;;;;22.10;26.90;;;;;;5051414;28;19938;-73
2022/03/11 02:41:18;;;;;;;;;;;22.00;26.90;;;;;;5052296;28;19979;-75
2022/03/11 02:43:45;;;;;;;;;;;22.10;27.00;;;;;;5048876;28;19970;-74
2022/03/11 02:46:14;;;;;;;;;;;22.00;26.90;;;;;;5052573;28;20386;-74
2022/03/11 02:48:41;;;;;;;;;;;22.10;27.00;;;;;;5052129;28;20436;-74
2022/03/11 02:51:09;;;;;;;;;;;22.10;27.00;;;;;;5052496;28;19924;-75
2022/03/11 02:53:40;;;;;;;;;;;22.10;27.00;;;;;;5049958;28;19924;-74
2022/03/11 02:56:11;;;;;;;;;;;22.10;27.10;;;;;;5052430;28;19924;-74
2022/03/11 02:58:39;;;;;;;;;;;22.00;27.00;;;;;;5052147;28;19925;-74
2022/03/11 03:01:06;;;;;;;;;;;22.00;27.00;;;;;;5052082;28;20329;-74
2022/03/11 03:03:34;;;;;;;;;;;22.00;27.00;;;;;;5049918;28;20019;-74
2022/03/11 03:06:01;;;;;;;;;;;22.00;27.00;;;;;;5051972;28;19958;-74
2022/03/11 03:08:28;;;;;;;;;;;22.00;27.10;;;;;;5051525;28;20451;-74
2022/03/11 03:10:55;;;;;;;;;;;22.00;27.10;;;;;;5052001;28;19924;-74
2022/03/11 03:13:22;;;;;;;;;;;22.00;27.10;;;;;;5049340;28;19924;-74
2022/03/11 03:15:49;;;;;;;;;;;22.00;27.10;;;;;;5050592;28;19924;-73
2022/03/11 03:18:17;;;;;;;;;;;22.00;27.10;;;;;;5051985;28;19928;-74
2022/03/11 03:20:44;;;;;;;;;;;22.00;27.10;;;;;;5051954;28;19932;-74
2022/03/11 03:23:11;;;;;;;;;;;22.00;27.10;;;;;;5049541;28;19925;-73
2022/03/11 03:32:49;;;;;;;;;;;21.90;27.00;;;;;;5049685;28;19923;-74
2022/03/11 03:35:16;;;;;;;;;;;21.90;27.00;;;;;;5050896;28;19924;-74
2022/03/11 03:37:43;;;;;;;;;;;21.90;27.00;;;;;;5051983;28;20382;-74
2022/03/11 03:40:10;;;;;;;;;;;21.90;27.00;;;;;;5050868;28;19948;-75
2022/03/11 03:42:37;;;;;;;;;;;21.90;27.00;;;;;;5049661;28;20797;-74
2022/03/11 03:48:28;;;;;;;;;;;21.90;27.00;;;;;;5051308;28;20329;-75
2022/03/11 03:50:55;;;;;;;;;;;21.90;27.00;;;;;;5051163;28;19924;-74
2022/03/11 03:53:21;;;;;;;;;;;21.90;27.00;;;;;;5039945;28;19971;-75
2022/03/11 03:55:48;;;;;;;;;;;21.90;27.00;;;;;;5050929;28;19960;-74
2022/03/11 03:58:15;;;;;;;;;;;21.90;27.00;;;;;;5051719;28;19924;-74
2022/03/11 04:00:55;;;;;;;;;;;21.90;27.00;;;;;;5050910;28;20357;-74
2022/03/11 04:03:22;;;;;;;;;;;21.90;27.00;;;;;;5048665;28;20138;-74
2022/03/11 04:05:50;;;;;;;;;;;21.90;27.00;;;;;;5051090;28;19928;-74
2022/03/11 04:08:17;;;;;;;;;;;21.90;27.00;;;;;;5051040;28;20271;-74
2022/03/11 04:10:44;;;;;;;;;;;21.80;27.00;;;;;;5050941;28;20390;-74
2022/03/11 04:13:12;;;;;;;;;;;21.80;27.00;;;;;;5059396;28;19977;-73
2022/03/11 04:15:39;;;;;;;;;;;21.80;27.00;;;;;;5070655;28;20328;-74
2022/03/11 04:18:06;;;;;;;;;;;21.80;27.00;;;;;;5071619;28;20258;-74
2022/03/11 04:20:33;;;;;;;;;;;21.90;27.00;;;;;;5070763;28;19924;-74
2022/03/11 04:23:00;;;;;;;;;;;21.90;27.00;;;;;;5069020;28;19924;-74
2022/03/11 04:32:38;;;;;;;;;;;21.90;27.00;;;;;;5069095;28;20018;-73
2022/03/11 04:35:05;;;;;;;;;;;21.80;26.90;;;;;;5069477;28;20418;-74
2022/03/11 04:37:32;;;;;;;;;;;21.90;27.00;;;;;;5071253;28;19994;-74
2022/03/11 04:39:59;;;;;;;;;;;21.80;27.00;;;;;;5069142;28;19925;-74
2022/03/11 04:42:26;;;;;;;;;;;21.80;27.00;;;;;;5069246;28;19955;-74
2022/03/11 04:48:24;;;;;;;;;;;21.80;27.40;;;;;;5050562;28;20024;-74
2022/03/11 04:50:51;;;;;;;;;;;21.80;27.00;;;;;;5049896;28;20282;-74
2022/03/11 04:53:18;;;;;;;;;;;21.80;27.00;;;;;;5047866;28;19929;-74
2022/03/11 04:55:45;;;;;;;;;;;21.80;27.00;;;;;;5049906;28;19925;-74
2022/03/11 04:58:12;;;;;;;;;;;21.80;27.00;;;;;;5050549;28;19955;-73
2022/03/11 05:01:05;;;;;;;;;;;21.80;27.00;;;;;;5048386;28;20378;-74
2022/03/11 05:03:33;;;;;;;;;;;21.80;27.00;;;;;;5047716;28;19947;-74
2022/03/11 05:06:00;;;;;;;;;;;21.80;27.00;;;;;;5067274;28;19924;-74
2022/03/11 05:08:27;;;;;;;;;;;21.80;27.00;;;;;;5070440;28;19924;-74
2022/03/11 05:10:54;;;;;;;;;;;21.80;27.00;;;;;;5069918;28;19924;-73
2022/03/11 05:13:22;;;;;;;;;;;21.80;27.00;;;;;;5065571;28;20467;-73
2022/03/11 05:15:49;;;;;;;;;;;21.80;27.00;;;;;;5049387;28;20354;-74
2022/03/11 05:18:16;;;;;;;;;;;21.70;27.00;;;;;;5050475;28;20019;-73
2022/03/11 05:23:48;;;;;;;;;;;21.70;27.00;;;;;;5046974;28;20136;-74
2022/03/11 05:26:24;;;;;;;;;;;21.70;27.00;;;;;;5050017;28;19932;-74
2022/03/11 05:28:52;;;;;;;;;;;21.70;27.00;;;;;;5050298;28;19931;-74
2022/03/11 05:31:20;;;;;;;;;;;21.70;27.00;;;;;;5069020;28;20435;-74
2022/03/11 05:33:48;;;;;;;;;;;21.70;27.00;;;;;;5035801;28;19925;-74
2022/03/11 05:36:15;;;;;;;;;;;21.70;27.00;;;;;;5030201;28;19925;-74
2022/03/11 05:38:43;;;;;;;;;;;21.80;27.00;;;;;;5029958;28;19925;-74
2022/03/11 05:41:13;;;;;;;;;;;21.70;26.90;;;;;;5030533;28;19925;-74
2022/03/11 05:43:40;;;;;;;;;;;21.80;27.00;;;;;;5035757;28;19971;-74
2022/03/11 05:46:07;;;;;;;;;;;21.70;26.90;;;;;;5030349;28;19979;-74
2022/03/11 05:48:34;;;;;;;;;;;21.80;27.00;;;;;;5029629;28;20210;-74
2022/03/11 05:51:06;;;;;;;;;;;21.80;27.00;;;;;;5031979;28;19968;-74
2022/03/11 05:53:33;;;;;;;;;;;21.80;27.00;;;;;;5038656;28;20329;-74
2022/03/11 05:56:00;;;;;;;;;;;21.80;27.00;;;;;;5029616;28;19933;-74
2022/03/11 05:58:27;;;;;;;;;;;21.80;26.90;;;;;;5030124;28;20349;-74
2022/03/11 06:00:54;;;;;;;;;;;21.80;26.90;;;;;;5052192;28;19924;-74
2022/03/11 06:03:22;;;;;;;;;;;21.80;26.90;;;;;;5051348;28;20654;-73
2022/03/11 06:05:49;;;;;;;;;;;21.80;26.90;;;;;;5053067;28;20285;-73
2022/03/11 06:08:16;;;;;;;;;;;21.90;26.70;;;;;;5053505;28;19924;-74
2022/03/11 06:13:49;;;;;;;;;;;21.80;26.40;;;;;;5044889;28;19986;-74
2022/03/11 06:16:16;;;;;;;;;;;21.80;26.40;;;;;;5032533;28;19925;-75
2022/03/11 06:18:43;;;;;;;;;;;21.80;26.40;;;;;;5033083;28;19925;-70
2022/03/11 06:21:11;;;;;;;;;;;21.80;26.30;;;;;;5032823;28;19925;-72
2022/03/11 06:23:38;;;;;;;;;;;21.80;26.20;;;;;;5044842;28;20606;-73
2022/03/11 06:26:05;;;;;;;;;;;21.80;26.10;;;;;;5072916;28;20332;-72
2022/03/11 06:28:32;;;;;;;;;;;21.90;26.10;;;;;;5070953;28;19924;-72
2022/03/11 06:30:59;;;;;;;;;;;21.90;26.00;;;;;;5051128;28;19925;-70
2022/03/11 06:33:26;;;;;;;;;;;22.00;26.00;;;;;;5049010;28;19964;-73
2022/03/11 06:35:53;;;;;;;;;;;22.00;26.10;;;;;;5082500;28;19928;-75
2022/03/11 06:38:20;;;;;;;;;;;22.00;26.10;;;;;;5051142;28;19994;-67
2022/03/11 06:40:49;;;;;;;;;;;22.10;25.90;;;;;;5051772;28;19925;-74
2022/03/11 06:43:16;;;;;;;;;;;22.20;26.00;;;;;;5050277;28;19928;-71
2022/03/11 06:45:44;;;;;;;;;;;22.20;26.30;;;;;;5063573;28;19924;-69
2022/03/11 06:48:11;;;;;;;;;;;22.30;26.80;;;;;;5069381;28;20589;-69
2022/03/11 06:50:38;;;;;;;;;;;22.40;26.80;;;;;;5067622;28;20417;-70
2022/03/11 06:53:05;;;;;;;;;;;22.40;26.60;;;;;;5067431;28;19924;-69
2022/03/11 06:55:32;;;;;;;;;;;22.50;26.70;;;;;;5052295;28;19925;-74
2022/03/11 06:58:00;;;;;;;;;;;22.60;26.70;;;;;;5045659;28;19924;-75
2022/03/11 07:00:27;;;;;;;;;;;22.70;26.70;;;;;;5047949;28;20252;-74
2022/03/11 07:02:55;;;;;;;;;;;22.80;26.60;;;;;;5045158;28;19943;-74
2022/03/11 07:05:22;;;;;;;;;;;22.90;26.60;;;;;;5038453;28;19925;-73
2022/03/11 07:07:49;;;;;;;;;;;23.00;26.50;;;;;;5045177;28;20072;-71
2022/03/11 07:10:16;;;;;;;;;;;23.00;26.20;;;;;;5050493;28;19929;-67
2022/03/11 07:12:43;;;;;;;;;;;23.10;25.90;;;;;;5044240;28;19935;-71
2022/03/11 07:15:11;;;;;;;;;;;23.20;26.10;;;;;;5045595;28;20317;-75
2022/03/11 07:17:38;;;;;;;;;;;23.20;26.10;;;;;;5041908;28;19961;-72
2022/03/11 07:20:06;;;;;;;;;;;23.30;26.20;;;;;;5047712;28;20003;-68
2022/03/11 07:22:34;;;;;;;;;;;23.40;26.10;;;;;;5049763;28;19925;-67
2022/03/11 07:25:02;;;;;;;;;;;23.50;26.10;;;;;;5050862;28;20356;-77
2022/03/11 07:27:29;;;;;;;;;;;23.50;26.10;;;;;;5044155;28;20533;-69
2022/03/11 07:29:57;;;;;;;;;;;23.60;26.00;;;;;;5047372;28;19928;-73
2022/03/11 07:32:24;;;;;;;;;;;23.60;25.90;;;;;;5051463;28;20293;-76
2022/03/11 07:34:51;;;;;;;;;;;23.70;26.00;;;;;;5046343;28;19932;-71
2022/03/11 07:37:21;;;;;;;;;;;23.70;26.00;;;;;;5046305;28;19928;-76
2022/03/11 07:39:48;;;;;;;;;;;23.80;26.00;;;;;;5046954;28;19964;-72
2022/03/11 07:42:15;;;;;;;;;;;23.90;25.90;;;;;;5050683;28;19925;-71
2022/03/11 07:44:44;;;;;;;;;;;23.90;25.80;;;;;;5049502;28;20275;-70
2022/03/11 07:47:11;;;;;;;;;;;24.00;25.70;;;;;;5044988;28;20016;-69
2022/03/11 07:53:23;;;;;;;;;;;24.10;25.50;;;;;;5048732;28;19955;-69
2022/03/11 07:55:50;;;;;;;;;;;24.20;25.00;;;;;;5064841;28;19925;-69
2022/03/11 07:58:21;;;;;;;;;;;24.30;24.70;;;;;;5042662;28;19964;-71
2022/03/11 08:00:48;;;;;;;;;;;24.30;24.50;;;;;;5048506;28;20011;-80
2022/03/11 08:03:20;;;;;;;;;;;24.30;24.60;;;;;;5080100;28;20051;-75
2022/03/11 08:05:47;;;;;;;;;;;24.40;24.50;;;;;;5048867;28;19925;-74
2022/03/11 08:08:14;;;;;;;;;;;24.50;24.40;;;;;;5048100;28;19932;-76
2022/03/11 08:10:41;;;;;;;;;;;24.50;24.30;;;;;;5063079;28;19940;-74
2022/03/11 08:13:28;;;;;;;;;;;24.60;24.20;;;;;;5070480;28;19924;-75
2022/03/11 08:15:55;;;;;;;;;;;24.60;24.10;;;;;;5069510;28;19974;-74
2022/03/11 08:18:24;;;;;;;;;;;24.70;24.20;;;;;;5057548;28;20338;-76
2022/03/11 08:20:51;;;;;;;;;;;24.70;24.20;;;;;;5046657;28;20370;-77
2022/03/11 08:23:18;;;;;;;;;;;24.70;24.50;;;;;;5049892;28;19928;-72
2022/03/11 08:25:46;;;;;;;;;;;24.70;24.70;;;;;;5048988;28;19976;-70
2022/03/11 08:28:13;;;;;;;;;;;24.70;24.80;;;;;;5047494;28;20150;-72
2022/03/11 08:30:41;;;;;;;;;;;24.70;24.90;;;;;;5042958;28;19951;-71
2022/03/11 08:33:09;;;;;;;;;;;24.60;25.00;;;;;;5043084;28;19959;-69
2022/03/11 08:35:56;;;;;;;;;;;24.60;25.00;;;;;;5040100;28;19939;-68
2022/03/11 08:38:37;;;;;;;;;;;24.60;25.00;;;;;;5043460;28;19935;-77
2022/03/11 08:41:06;;;;;;;;;;;24.60;25.10;;;;;;5041815;28;19933;-75
2022/03/11 08:43:38;;;;;;;;;;;24.50;25.00;;;;;;5040999;28;20407;-68
2022/03/11 08:46:07;;;;;;;;;;;24.50;25.00;;;;;;5039393;28;19929;-73
2022/03/11 08:48:35;;;;;;;;;;;24.50;25.10;;;;;;5038485;28;20015;-73
2022/03/11 08:51:02;;;;;;;;;;;24.50;25.20;;;;;;5040137;28;20544;-75
2022/03/11 08:53:29;;;;;;;;;;;24.50;25.30;;;;;;5038008;28;20325;-68
2022/03/11 08:55:56;;;;;;;;;;;24.50;25.40;;;;;;5041822;28;19932;-73
2022/03/11 08:58:23;;;;;;;;;;;24.50;25.50;;;;;;5044413;28;19925;-72
2022/03/11 09:00:50;;;;;;;;;;;24.50;25.60;;;;;;5043596;28;19994;-70
2022/03/11 09:03:17;;;;;;;;;;;24.50;25.60;;;;;;5041876;28;20289;-75
2022/03/11 09:05:45;;;;;;;;;;;24.50;25.50;;;;;;5054426;28;20287;-72
2022/03/11 09:08:12;;;;;;;;;;;24.50;25.50;;;;;;5040289;28;19937;-72
2022/03/11 09:10:40;;;;;;;;;;;24.60;25.50;;;;;;5045915;28;19959;-69
2022/03/11 09:13:07;;;;;;;;;;;24.50;25.40;;;;;;5073767;28;19933;-73
2022/03/11 09:15:34;;;;;;;;;;;24.50;25.30;;;;;;5050004;28;19933;-70
2022/03/11 09:18:01;;;;;;;;;;;24.60;25.40;;;;;;5039026;28;20398;-76
2022/03/11 09:20:29;;;;;;;;;;;24.50;25.30;;;;;;5044346;28;19940;-73
2022/03/11 09:23:02;;;;;;;;;;;24.60;25.30;;;;;;5041571;28;19982;-67
2022/03/11 09:25:29;;;;;;;;;;;24.60;25.80;;;;;;5045338;28;19974;-73
2022/03/11 09:28:02;;;;;;;;;;;24.60;25.30;;;;;;5038157;28;20411;-74
2022/03/11 09:30:29;;;;;;;;;;;24.60;25.20;;;;;;5044113;28;19929;-76
2022/03/11 09:32:57;;;;;;;;;;;24.60;25.20;;;;;;5082034;28;20503;-75
2022/03/11 09:35:24;;;;;;;;;;;24.60;25.00;;;;;;5053155;28;19925;-71
2022/03/11 09:37:51;;;;;;;;;;;24.60;24.90;;;;;;5051516;28;20374;-77
2022/03/11 09:40:18;;;;;;;;;;;24.60;24.80;;;;;;5053629;28;19951;-75
2022/03/11 09:42:45;;;;;;;;;;;24.60;24.80;;;;;;5049973;28;19986;-72
2022/03/11 09:45:12;;;;;;;;;;;24.60;24.80;;;;;;5061526;28;19970;-70
2022/03/11 09:47:41;;;;;;;;;;;24.60;24.80;;;;;;5072342;28;19978;-70
2022/03/11 09:50:08;;;;;;;;;;;24.60;24.70;;;;;;5072003;28;19924;-74
2022/03/11 09:52:35;;;;;;;;;;;24.60;24.80;;;;;;5071638;28;20016;-73
2022/03/11 09:55:07;;;;;;;;;;;24.50;24.70;;;;;;5057760;28;19952;-72
2022/03/11 09:57:34;;;;;;;;;;;24.60;24.70;;;;;;5045825;28;19929;-74
2022/03/11 10:00:03;;;;;;;;;;;24.50;24.60;;;;;;5043553;28;20402;-71
2022/03/11 10:02:30;;;;;;;;;;;24.50;24.60;;;;;;5044259;28;20386;-72
2022/03/11 10:04:57;;;;;;;;;;;24.60;24.60;;;;;;5044385;28;20019;-70
2022/03/11 10:07:56;;;;;;;;;;;24.50;24.60;;;;;;5043780;28;19951;-71
2022/03/11 10:10:24;;;;;;;;;;;24.50;24.60;;;;;;5039239;28;19978;-77
2022/03/11 10:13:06;;;;;;;;;;;24.50;24.60;;;;;;5045578;28;19983;-74
2022/03/11 10:15:34;;;;;;;;;;;24.50;24.50;;;;;;5049139;28;19932;-73
2022/03/11 10:18:04;;;;;;;;;;;24.60;24.40;;;;;;5036855;28;19936;-72
2022/03/11 10:20:31;;;;;;;;;;;24.60;24.40;;;;;;5073630;28;19979;-70
2022/03/11 10:22:58;;;;;;;;;;;24.50;24.30;;;;;;5047598;28;19924;-72
2022/03/11 10:25:28;;;;;;;;;;;24.50;24.30;;;;;;5044292;28;21650;-73
2022/03/11 10:27:57;;;;;;;;;;;24.50;24.70;;;;;;5042834;28;19990;-74
2022/03/11 10:30:25;;;;;;;;;;;24.50;24.20;;;;;;5048823;28;19932;-73
2022/03/11 10:32:54;;;;;;;;;;;24.50;24.20;;;;;;5051528;28;19932;-75
2022/03/11 10:35:36;;;;;;;;;;;24.50;24.20;;;;;;5062111;28;19924;-79
2022/03/11 10:38:05;;;;;;;;;;;24.50;24.20;;;;;;5045891;28;20485;-72
2022/03/11 10:40:33;;;;;;;;;;;24.50;24.20;;;;;;5047206;28;20016;-74
2022/03/11 10:43:17;;;;;;;;;;;24.50;24.10;;;;;;5052762;28;20464;-75
2022/03/11 10:45:45;;;;;;;;;;;24.60;24.30;;;;;;5050295;28;19924;-76
2022/03/11 10:48:12;;;;;;;;;;;24.60;24.30;;;;;;5050220;28;19937;-76
2022/03/11 10:50:41;;;;;;;;;;;24.60;24.20;;;;;;5036760;28;20298;-74
2022/03/11 10:53:08;;;;;;;;;;;24.70;24.20;;;;;;5034099;28;20252;-70
2022/03/11 10:55:39;;;;;;;;;;;24.70;24.30;;;;;;5032237;28;19991;-75
2022/03/11 10:58:06;;;;;;;;;;;24.70;24.20;;;;;;5040314;28;19979;-75
2022/03/11 11:00:34;;;;;;;;;;;24.70;24.20;;;;;;5048124;28;19925;-70
2022/03/11 11:03:06;;;;;;;;;;;24.80;24.20;;;;;;5049956;28;20340;-68
2022/03/11 11:05:34;;;;;;;;;;;24.80;24.20;;;;;;5051766;28;19971;-71
2022/03/11 11:08:01;;;;;;;;;;;24.80;24.10;;;;;;5066939;28;19979;-74
2022/03/11 11:10:29;;;;;;;;;;;24.80;24.10;;;;;;5047494;28;20062;-76
2022/03/11 11:12:56;;;;;;;;;;;24.80;24.10;;;;;;5043568;28;20381;-75
2022/03/11 11:15:24;;;;;;;;;;;24.80;24.00;;;;;;5049809;28;19924;-76
2022/03/11 11:17:51;;;;;;;;;;;24.80;24.00;;;;;;5041418;28;19933;-75
2022/03/11 11:20:36;;;;;;;;;;;24.80;23.90;;;;;;5044660;28;20273;-76
2022/03/11 11:23:04;;;;;;;;;;;24.70;23.80;;;;;;5043614;28;20342;-73
2022/03/11 11:25:31;;;;;;;;;;;24.70;23.70;;;;;;5033756;28;19995;-75
2022/03/11 11:28:10;;;;;;;;;;;24.70;23.80;;;;;;5030352;28;19955;-75
2022/03/11 11:30:37;;;;;;;;;;;24.70;23.60;;;;;;5030520;28;19979;-70
2022/03/11 11:33:04;;;;;;;;;;;24.70;23.50;;;;;;5041040;28;19933;-70
2022/03/11 11:35:32;;;;;;;;;;;24.70;23.40;;;;;;5048954;28;19982;-69
2022/03/11 11:38:04;;;;;;;;;;;24.70;23.40;;;;;;5051266;28;19979;-72
2022/03/11 11:40:34;;;;;;;;;;;24.70;23.40;;;;;;5051044;28;20417;-76
2022/03/11 11:43:26;;;;;;;;;;;24.70;23.40;;;;;;5049019;28;19932;-74
2022/03/11 11:45:55;;;;;;;;;;;24.70;23.40;;;;;;5049215;28;19928;-78
2022/03/11 11:48:42;;;;;;;;;;;24.70;23.40;;;;;;5049581;28;19952;-75
2022/03/11 11:51:11;;;;;;;;;;;24.80;23.50;;;;;;5049049;28;19935;-74
2022/03/11 11:53:42;;;;;;;;;;;24.70;24.10;;;;;;5040858;28;19974;-73
2022/03/11 11:56:29;;;;;;;;;;;24.70;23.70;;;;;;5049073;28;19924;-77
2022/03/11 11:58:57;;;;;;;;;;;24.80;23.50;;;;;;5047392;28;19925;-75
2022/03/11 12:01:44;;;;;;;;;;;24.70;23.40;;;;;;5049496;28;19928;-72
2022/03/11 12:04:31;;;;;;;;;;;24.80;23.40;;;;;;5048388;28;19944;-78
2022/03/11 12:07:00;;;;;;;;;;;24.80;23.50;;;;;;5050022;28;19925;-73
2022/03/11 12:12:50;;;;;;;;;;;24.80;23.50;;;;;;5046836;28;19940;-74
2022/03/11 12:15:18;;;;;;;;;;;24.80;23.70;;;;;;5070246;28;19974;-78
2022/03/11 12:18:01;;;;;;;;;;;24.80;23.50;;;;;;5049187;28;19925;-77
2022/03/11 12:20:34;;;;;;;;;;;24.90;23.60;;;;;;5049556;28;19932;-73
2022/03/11 12:23:11;;;;;;;;;;;24.90;23.50;;;;;;5050220;28;19982;-75
2022/03/11 12:25:46;;;;;;;;;;;24.90;23.40;;;;;;5047312;28;19932;-75
2022/03/11 12:28:16;;;;;;;;;;;24.90;23.30;;;;;;5048824;28;19924;-73
2022/03/11 12:30:56;;;;;;;;;;;24.90;23.40;;;;;;5082534;28;19925;-74
2022/03/11 12:33:26;;;;;;;;;;;24.90;23.30;;;;;;5051139;28;19928;-72
2022/03/11 12:35:54;;;;;;;;;;;24.90;23.40;;;;;;5047294;28;19983;-75
2022/03/11 12:38:23;;;;;;;;;;;25.00;23.50;;;;;;5044236;28;20390;-72
2022/03/11 12:40:50;;;;;;;;;;;25.00;23.40;;;;;;5046822;28;19924;-70
2022/03/11 12:43:20;;;;;;;;;;;25.00;23.40;;;;;;5049705;28;19925;-75
2022/03/11 12:45:54;;;;;;;;;;;25.10;23.50;;;;;;5048570;28;19924;-76
2022/03/11 12:48:22;;;;;;;;;;;25.10;23.50;;;;;;5040430;28;19944;-78
2022/03/11 12:50:50;;;;;;;;;;;25.00;23.50;;;;;;5047651;28;19933;-74
2022/03/11 12:53:18;;;;;;;;;;;25.10;23.50;;;;;;5048277;28;19937;-66
2022/03/11 12:55:46;;;;;;;;;;;25.10;23.50;;;;;;5046132;28;19929;-68
2022/03/11 12:58:16;;;;;;;;;;;25.10;23.60;;;;;;5044569;28;19929;-71
2022/03/11 13:00:44;;;;;;;;;;;25.10;23.60;;;;;;5047670;28;20340;-72
2022/03/11 13:03:12;;;;;;;;;;;25.10;23.60;;;;;;5049009;28;20023;-74
2022/03/11 13:05:45;;;;;;;;;;;25.10;23.60;;;;;;5046735;28;19995;-68
2022/03/11 13:08:15;;;;;;;;;;;25.00;23.40;;;;;;5044909;28;20198;-70
2022/03/11 13:10:44;;;;;;;;;;;25.00;23.20;;;;;;5048993;28;19964;-77
2022/03/11 13:13:11;;;;;;;;;;;25.00;23.10;;;;;;5049696;28;19955;-70
2022/03/11 13:15:40;;;;;;;;;;;25.00;23.00;;;;;;5045358;28;19924;-70
2022/03/11 13:18:08;;;;;;;;;;;25.00;23.00;;;;;;5045164;28;19951;-63
2022/03/11 13:20:40;;;;;;;;;;;24.90;23.30;;;;;;5047807;28;19971;-75
2022/03/11 13:23:09;;;;;;;;;;;24.90;22.80;;;;;;5050372;28;20289;-72
2022/03/11 13:25:36;;;;;;;;;;;24.90;22.80;;;;;;5049594;28;19925;-73
2022/03/11 13:28:04;;;;;;;;;;;24.90;22.70;;;;;;5057943;28;19925;-75
2022/03/11 13:30:32;;;;;;;;;;;24.90;22.70;;;;;;5048718;28;19932;-76
2022/03/11 13:33:09;;;;;;;;;;;24.80;22.70;;;;;;5050024;28;19925;-71
2022/03/11 13:36:11;;;;;;;;;;;24.80;22.60;;;;;;5049090;28;19932;-74
2022/03/11 13:38:44;;;;;;;;;;;24.80;22.60;;;;;;5045238;28;20382;-74
2022/03/11 13:41:22;;;;;;;;;;;24.80;22.50;;;;;;5049531;28;20207;-76
2022/03/11 13:43:57;;;;;;;;;;;24.70;22.60;;;;;;5048363;28;19982;-72
2022/03/11 13:46:27;;;;;;;;;;;24.70;22.70;;;;;;5048308;28;20381;-74
2022/03/11 13:48:59;;;;;;;;;;;24.80;22.80;;;;;;5046523;28;19924;-74
2022/03/11 13:51:48;;;;;;;;;;;24.70;22.70;;;;;;5050319;28;19925;-77
2022/03/11 13:54:24;;;;;;;;;;;24.70;23.00;;;;;;5056286;28;19924;-81
2022/03/11 13:56:52;;;;;;;;;;;24.70;23.00;;;;;;5068687;28;20447;-75
2022/03/11 13:59:27;;;;;;;;;;;24.70;23.00;;;;;;5062446;28;19976;-74
2022/03/11 14:02:06;;;;;;;;;;;24.70;23.00;;;;;;5070344;28;19925;-78
2022/03/11 14:04:33;;;;;;;;;;;24.70;22.90;;;;;;5069766;28;20015;-72
2022/03/11 14:07:08;;;;;;;;;;;24.70;22.90;;;;;;5068701;28;19999;-76
2022/03/11 14:09:35;;;;;;;;;;;24.70;22.90;;;;;;5050848;28;20401;-77
2022/03/11 14:12:02;;;;;;;;;;;24.70;22.90;;;;;;5049753;28;19983;-71
2022/03/11 14:14:33;;;;;;;;;;;24.70;23.00;;;;;;5054798;28;19937;-74
2022/03/11 14:17:01;;;;;;;;;;;24.60;23.00;;;;;;5068838;28;19982;-81
2022/03/11 14:19:28;;;;;;;;;;;24.60;22.90;;;;;;5065110;28;19967;-80
2022/03/11 14:21:55;;;;;;;;;;;24.60;22.90;;;;;;5073341;28;19925;-73
2022/03/11 14:24:22;;;;;;;;;;;24.60;22.80;;;;;;5073344;28;20274;-71
2022/03/11 14:26:50;;;;;;;;;;;24.60;22.70;;;;;;5073107;28;19924;-71
2022/03/11 14:29:17;;;;;;;;;;;24.50;22.60;;;;;;5067330;28;19924;-71
2022/03/11 14:31:44;;;;;;;;;;;24.50;22.60;;;;;;5073698;28;19932;-72
2022/03/11 14:34:11;;;;;;;;;;;24.50;22.50;;;;;;5073383;28;19994;-72
2022/03/11 14:36:39;;;;;;;;;;;24.50;22.40;;;;;;5072654;28;19924;-73
2022/03/11 14:39:05;;;;;;;;;;;24.50;22.40;;;;;;5055713;28;19964;-74
2022/03/11 14:41:34;;;;;;;;;;;24.50;22.40;;;;;;5053129;28;19928;-74
2022/03/11 14:44:01;;;;;;;;;;;24.50;22.30;;;;;;5052755;28;20381;-77
2022/03/11 14:46:32;;;;;;;;;;;24.40;22.20;;;;;;5084595;28;19925;-76
2022/03/11 14:48:59;;;;;;;;;;;24.40;22.60;;;;;;5050627;28;19931;-76
2022/03/11 14:51:26;;;;;;;;;;;24.40;22.20;;;;;;5057018;28;19925;-76
2022/03/11 14:53:53;;;;;;;;;;;24.40;22.20;;;;;;5058896;28;20381;-77
2022/03/11 14:56:21;;;;;;;;;;;24.40;22.20;;;;;;5055318;28;19987;-76
2022/03/11 14:58:48;;;;;;;;;;;24.30;22.10;;;;;;5082331;28;19925;-78
2022/03/11 15:01:15;;;;;;;;;;;24.30;22.20;;;;;;5053983;28;19947;-77
2022/03/11 15:03:47;;;;;;;;;;;24.30;22.10;;;;;;5049476;28;19925;-73
2022/03/11 15:06:14;;;;;;;;;;;24.30;22.10;;;;;;5052473;28;20425;-74
2022/03/11 15:08:42;;;;;;;;;;;24.30;22.10;;;;;;5049589;28;20408;-74
2022/03/11 15:11:09;;;;;;;;;;;24.30;22.10;;;;;;5052289;28;19970;-74